Aviation Digital Data Service (ADDS)

Output produced by METARs form (0100 UTC 22 September 2017)
found at http://www.aviationweather.gov/adds/metars/
 
KWJF 212340Z 2200/2224 28022G28KT P6SM SCT040 
     FM220300 26015G20KT P6SM SKC 
     FM220800 26010KT P6SM SKC 
     FM222200 26015KT P6SM SKC
       
KWMC 212334Z 2200/2224 03015G25KT P6SM -SHRA SCT040 OVC060 
     FM220200 02008KT P6SM -SHRA SCT040 OVC060 
     FM220600 32006KT P6SM SCT050 BKN080 
     FM222000 31008KT P6SM VCSH SCT035 BKN060
       
TAF AMD KWRB 212231Z 2122/2303 10006KT 9999 SCT050 QNH2993INS 
     TEMPO 2122/2124 VRB10G20KT 4800 -TSRA BKN040CB 
     BECMG 2123/2124 VRB06KT 9999 SCT060 QNH2994INS 
     BECMG 2208/2209 VRB06KT 8000 BR FEW050 QNH2995INS 
     BECMG 2213/2214 07006KT 9999 NSW FEW030 QNH2995INS 
     BECMG 2219/2220 07006KT 9000 -SHRA SCT030 QNH2996INS 
     BECMG 2223/2224 VRB06KT 9999 NSW SCT030 QNH2998INS TX32/2122Z TN21/2212Z
       
TAF KWRI 211800Z 2118/2224 35012KT 9999 FEW080 QNH2995INS 
     BECMG 2122/2123 35006KT 9999 FEW250 QNH2998INS 
     BECMG 2214/2215 34012KT 9999 SCT060 BKN070 QNH2992INS TX30/2121Z TN17/2209Z
       
KWRL 212338Z 2200/2224 34011KT P6SM SCT025 BKN040 
     FM220400 34009KT P6SM VCSH SCT030 BKN040 
     FM221800 34008KT P6SM BKN040